Time;durP1;ratioP1;P1;durP2;ratioP2;P2;SDS_P1;SDS_P2;PMS_P1;PMS_P2;Temp;Humidity;BMP_temperature;BMP_pressure;BME280_temperature;BME280_humidity;BME280_pressure;Samples;Min_cycle;Max_cycle;Signal;HPM_P1;HPM_P2
2022/05/16 00:00:09;;;;;;;;;;;;;;;;;;4925161;28;137182;-66
2022/05/16 00:02:37;;;;;;;;;;;;;;;;;;4930103;28;106499;-66
2022/05/16 00:05:03;;;;;;;;;;;;;;;;;;4942654;28;119482;-66
2022/05/16 00:07:30;;;;;;;;;;;;;;;;;;4924788;28;134953;-65
2022/05/16 00:09:56;;;;;;;;;;;;;;;;;;4931044;28;113170;-66
2022/05/16 00:12:22;;;;;;;;;;;;;;;;;;4928258;28;137250;-66
2022/05/16 00:14:49;;;;;;;;;;;;;;;;;;4930361;28;107682;-66
2022/05/16 00:17:16;;;;;;;;;;;;;;;;;;4925516;28;125259;-66
2022/05/16 00:19:42;;;;;;;;;;;;;;;;;;4926032;28;107958;-65
2022/05/16 00:22:08;;;;;;;;;;;;;;;;;;4926994;28;136452;-66
2022/05/16 00:24:34;;;;;;;;;;;;;;;;;;4922996;28;123152;-66
2022/05/16 00:27:01;;;;;;;;;;;;;;;;;;4930528;28;137397;-66
2022/05/16 00:29:27;;;;;;;;;;;;;;;;;;4931592;28;122532;-66
2022/05/16 00:31:54;;;;;;;;;;;;;;;;;;4928126;28;136818;-66
2022/05/16 00:34:21;;;;;;;;;;;;;;;;;;4926913;28;107307;-66
2022/05/16 00:36:47;;;;;;;;;;;;;;;;;;4920933;28;121907;-66
2022/05/16 00:39:13;;;;;;;;;;;;;;;;;;4929210;28;136597;-66
2022/05/16 00:41:40;;;;;;;;;;;;;;;;;;4923070;28;133518;-66
2022/05/16 00:44:06;;;;;;;;;;;;;;;;;;4936160;28;107649;-66
2022/05/16 00:46:32;;;;;;;;;;;;;;;;;;4925559;28;135233;-66
2022/05/16 00:48:58;;;;;;;;;;;;;;;;;;4928729;28;138330;-65
2022/05/16 00:51:25;;;;;;;;;;;;;;;;;;4929119;28;125000;-66
2022/05/16 00:53:51;;;;;;;;;;;;;;;;;;4929306;28;137172;-66
2022/05/16 00:56:17;;;;;;;;;;;;;;;;;;4926364;28;114853;-66
2022/05/16 00:58:44;;;;;;;;;;;;;;;;;;4925513;28;136353;-66
2022/05/16 01:04:47;;;;;;;;;;;;;;;;;;4929148;28;129627;-66
2022/05/16 01:06:41;;;;;;;;;;;;;;;;;;4917425;28;135183;-66
2022/05/16 01:09:08;;;;;;;;;;;;;;;;;;4934021;22;127766;-66
2022/05/16 01:11:34;;;;;;;;;;;;;;;;;;4931296;28;120592;-66
2022/05/16 01:14:00;;;;;;;;;;;;;;;;;;4928542;28;130686;-66
2022/05/16 01:16:27;;;;;;;;;;;;;;;;;;4928848;28;122936;-66
2022/05/16 01:18:53;;;;;;;;;;;;;;;;;;4926180;28;136226;-66
2022/05/16 01:21:20;;;;;;;;;;;;;;;;;;4921580;28;137607;-66
2022/05/16 01:23:47;;;;;;;;;;;;;;;;;;4929899;28;122416;-66
2022/05/16 01:26:13;;;;;;;;;;;;;;;;;;4929321;28;136669;-66
2022/05/16 01:28:39;;;;;;;;;;;;;;;;;;4924062;28;137694;-66
2022/05/16 01:31:05;;;;;;;;;;;;;;;;;;4927966;28;106856;-66
2022/05/16 01:33:32;;;;;;;;;;;;;;;;;;4931253;28;135135;-66
2022/05/16 01:35:58;;;;;;;;;;;;;;;;;;4921764;28;122023;-66
2022/05/16 01:38:28;;;;;;;;;;;;;;;;;;4929427;28;137318;-65
2022/05/16 01:40:54;;;;;;;;;;;;;;;;;;4926945;28;135696;-66
2022/05/16 01:43:20;;;;;;;;;;;;;;;;;;4924952;28;123104;-66
2022/05/16 01:45:46;;;;;;;;;;;;;;;;;;4920855;28;113784;-66
2022/05/16 01:48:13;;;;;;;;;;;;;;;;;;4928624;28;137323;-66
2022/05/16 01:50:40;;;;;;;;;;;;;;;;;;4930275;28;107199;-66
2022/05/16 01:53:06;;;;;;;;;;;;;;;;;;4925511;28;135030;-66
2022/05/16 01:55:32;;;;;;;;;;;;;;;;;;4933028;28;106660;-66
2022/05/16 01:57:59;;;;;;;;;;;;;;;;;;4920153;28;134886;-66
2022/05/16 02:00:25;;;;;;;;;;;;;;;;;;4922322;28;138215;-66
2022/05/16 02:02:51;;;;;;;;;;;;;;;;;;4926713;28;120966;-66
2022/05/16 02:05:18;;;;;;;;;;;;;;;;;;4923337;28;124302;-66
2022/05/16 02:07:45;;;;;;;;;;;;;;;;;;4927110;28;136947;-66
2022/05/16 02:10:11;;;;;;;;;;;;;;;;;;4926222;28;123422;-66
2022/05/16 02:12:37;;;;;;;;;;;;;;;;;;4925930;28;135924;-66
2022/05/16 02:15:04;;;;;;;;;;;;;;;;;;4922901;28;107282;-66
2022/05/16 02:17:30;;;;;;;;;;;;;;;;;;4926039;28;118120;-66
2022/05/16 02:19:56;;;;;;;;;;;;;;;;;;4922374;28;137067;-66
2022/05/16 02:25:08;;;;;;;;;;;;;;;;;;4927529;28;136586;-66
2022/05/16 02:27:34;;;;;;;;;;;;;;;;;;4925549;28;128612;-66
2022/05/16 02:30:00;;;;;;;;;;;;;;;;;;4926444;28;123263;-66
2022/05/16 02:32:27;;;;;;;;;;;;;;;;;;4928546;28;126634;-65
2022/05/16 02:34:53;;;;;;;;;;;;;;;;;;4917953;28;137039;-66
2022/05/16 02:37:19;;;;;;;;;;;;;;;;;;4931225;28;119884;-66
2022/05/16 02:39:46;;;;;;;;;;;;;;;;;;4925513;28;139229;-66
2022/05/16 02:42:14;;;;;;;;;;;;;;;;;;4917001;28;122677;-66
2022/05/16 02:44:40;;;;;;;;;;;;;;;;;;4928055;28;106864;-66
2022/05/16 02:47:06;;;;;;;;;;;;;;;;;;4927653;28;108452;-66
2022/05/16 02:49:33;;;;;;;;;;;;;;;;;;4927950;28;109125;-66
2022/05/16 02:51:59;;;;;;;;;;;;;;;;;;4924848;28;135584;-66
2022/05/16 02:54:25;;;;;;;;;;;;;;;;;;4924472;28;137180;-66
2022/05/16 02:56:52;;;;;;;;;;;;;;;;;;4927553;28;123199;-66
2022/05/16 02:59:18;;;;;;;;;;;;;;;;;;4936712;28;113487;-66
2022/05/16 03:01:44;;;;;;;;;;;;;;;;;;4928257;28;120179;-66
2022/05/16 03:04:11;;;;;;;;;;;;;;;;;;4933278;28;136296;-66
2022/05/16 03:06:37;;;;;;;;;;;;;;;;;;4928355;28;137859;-66
2022/05/16 03:09:03;;;;;;;;;;;;;;;;;;4929788;28;124475;-66
2022/05/16 03:11:30;;;;;;;;;;;;;;;;;;4928780;28;135281;-66
2022/05/16 03:13:56;;;;;;;;;;;;;;;;;;4928272;28;108237;-66
2022/05/16 03:16:22;;;;;;;;;;;;;;;;;;4922779;28;122699;-66
2022/05/16 03:18:49;;;;;;;;;;;;;;;;;;4929099;28;134233;-66
2022/05/16 03:21:15;;;;;;;;;;;;;;;;;;4931870;28;137517;-67
2022/05/16 03:23:41;;;;;;;;;;;;;;;;;;4927484;28;137520;-66
2022/05/16 03:26:08;;;;;;;;;;;;;;;;;;4921094;28;137780;-66
2022/05/16 03:28:34;;;;;;;;;;;;;;;;;;4929576;28;123342;-66
2022/05/16 03:31:01;;;;;;;;;;;;;;;;;;4923845;28;136133;-66
2022/05/16 03:33:27;;;;;;;;;;;;;;;;;;4931140;28;137123;-66
2022/05/16 03:35:56;;;;;;;;;;;;;;;;;;4926044;28;122050;-66
2022/05/16 03:41:07;;;;;;;;;;;;;;;;;;4925750;28;136690;-66
2022/05/16 03:43:33;;;;;;;;;;;;;;;;;;4934756;28;123617;-66
2022/05/16 03:46:00;;;;;;;;;;;;;;;;;;4929771;28;137089;-66
2022/05/16 03:48:26;;;;;;;;;;;;;;;;;;4928179;28;122943;-66
2022/05/16 03:50:52;;;;;;;;;;;;;;;;;;4929135;28;106490;-67
2022/05/16 03:53:18;;;;;;;;;;;;;;;;;;4930607;28;136897;-67
2022/05/16 03:55:45;;;;;;;;;;;;;;;;;;4925270;28;123174;-67
2022/05/16 03:58:11;;;;;;;;;;;;;;;;;;4930901;28;136564;-66
2022/05/16 04:00:37;;;;;;;;;;;;;;;;;;4925842;28;137724;-67
2022/05/16 04:03:03;;;;;;;;;;;;;;;;;;4931580;28;123912;-67
2022/05/16 04:05:30;;;;;;;;;;;;;;;;;;4931575;28;136935;-67
2022/05/16 04:07:56;;;;;;;;;;;;;;;;;;4922481;28;123120;-67
2022/05/16 04:10:23;;;;;;;;;;;;;;;;;;4932655;28;137048;-67
2022/05/16 04:12:50;;;;;;;;;;;;;;;;;;4870474;28;1809546;-67
2022/05/16 04:15:16;;;;;;;;;;;;;;;;;;4926568;28;121068;-67
2022/05/16 04:17:43;;;;;;;;;;;;;;;;;;4923229;28;136591;-67
2022/05/16 04:20:10;;;;;;;;;;;;;;;;;;4923842;28;135577;-67
2022/05/16 04:22:36;;;;;;;;;;;;;;;;;;4923313;28;123060;-67
2022/05/16 04:25:02;;;;;;;;;;;;;;;;;;4930834;28;136022;-66
2022/05/16 04:27:29;;;;;;;;;;;;;;;;;;4921573;28;107306;-67
2022/05/16 04:29:55;;;;;;;;;;;;;;;;;;4925753;28;137295;-67
2022/05/16 04:32:21;;;;;;;;;;;;;;;;;;4928867;28;136311;-67
2022/05/16 04:34:47;;;;;;;;;;;;;;;;;;4929724;28;123548;-67
2022/05/16 04:37:14;;;;;;;;;;;;;;;;;;4922369;28;137071;-67
2022/05/16 04:39:40;;;;;;;;;;;;;;;;;;4923436;28;137947;-67
2022/05/16 04:44:51;;;;;;;;;;;;;;;;;;4926597;28;137464;-67
2022/05/16 04:47:18;;;;;;;;;;;;;;;;;;4922701;28;136019;-67
2022/05/16 04:49:44;;;;;;;;;;;;;;;;;;4927461;28;135869;-67
2022/05/16 04:52:11;;;;;;;;;;;;;;;;;;4928209;28;137763;-67
2022/05/16 04:54:37;;;;;;;;;;;;;;;;;;4928174;28;121249;-67
2022/05/16 04:57:03;;;;;;;;;;;;;;;;;;4925245;28;136303;-67
2022/05/16 04:59:30;;;;;;;;;;;;;;;;;;4930172;28;136759;-67
2022/05/16 05:01:56;;;;;;;;;;;;;;;;;;4930053;28;123294;-67
2022/05/16 05:04:22;;;;;;;;;;;;;;;;;;4925101;28;136691;-68
2022/05/16 05:06:48;;;;;;;;;;;;;;;;;;4934322;28;133543;-67
2022/05/16 05:09:15;;;;;;;;;;;;;;;;;;4931874;28;123086;-67
2022/05/16 05:14:32;;;;;;;;;;;;;;;;;;4924056;28;122103;-65
2022/05/16 05:16:58;;;;;;;;;;;;;;;;;;4924331;28;138691;-65
2022/05/16 05:19:25;;;;;;;;;;;;;;;;;;4924638;28;137211;-66
2022/05/16 05:21:51;;;;;;;;;;;;;;;;;;4924718;28;122063;-66
2022/05/16 05:24:17;;;;;;;;;;;;;;;;;;4924438;28;136557;-66
2022/05/16 05:26:44;;;;;;;;;;;;;;;;;;4921572;28;137965;-66
2022/05/16 05:29:11;;;;;;;;;;;;;;;;;;4922383;28;122332;-66
2022/05/16 05:31:37;;;;;;;;;;;;;;;;;;4926303;28;137472;-66
2022/05/16 05:34:04;;;;;;;;;;;;;;;;;;4928358;28;121839;-67
2022/05/16 05:36:34;;;;;;;;;;;;;;;;;;4923829;28;136110;-66
2022/05/16 05:39:01;;;;;;;;;;;;;;;;;;4930024;28;108530;-66
2022/05/16 05:41:27;;;;;;;;;;;;;;;;;;4917512;28;122544;-66
2022/05/16 05:43:53;;;;;;;;;;;;;;;;;;4917138;28;136620;-66
2022/05/16 05:46:20;;;;;;;;;;;;;;;;;;4930933;28;107518;-66
2022/05/16 05:48:46;;;;;;;;;;;;;;;;;;4926877;28;122917;-66
2022/05/16 05:51:12;;;;;;;;;;;;;;;;;;4926875;28;136761;-66
2022/05/16 05:53:41;;;;;;;;;;;;;;;;;;4923344;28;137370;-66
2022/05/16 05:56:07;;;;;;;;;;;;;;;;;;4928098;28;130619;-66
2022/05/16 05:58:33;;;;;;;;;;;;;;;;;;4922933;28;138895;-68
2022/05/16 06:01:00;;;;;;;;;;;;;;;;;;4924828;28;126408;-68
2022/05/16 06:03:26;;;;;;;;;;;;;;;;;;4936413;28;108351;-68
2022/05/16 06:05:53;;;;;;;;;;;;;;;;;;4926219;28;118159;-68
2022/05/16 06:08:19;;;;;;;;;;;;;;;;;;4926782;28;122398;-68
2022/05/16 06:10:45;;;;;;;;;;;;;;;;;;4927163;28;135178;-68
2022/05/16 06:13:11;;;;;;;;;;;;;;;;;;4925800;28;135753;-68
2022/05/16 06:15:38;;;;;;;;;;;;;;;;;;4926024;28;135379;-67
2022/05/16 06:18:04;;;;;;;;;;;;;;;;;;4919669;28;137887;-68
2022/05/16 06:20:30;;;;;;;;;;;;;;;;;;4922743;28;124061;-67
2022/05/16 06:22:57;;;;;;;;;;;;;;;;;;4929523;28;106814;-67
2022/05/16 06:25:32;;;;;;;;;;;;;;;;;;4927353;28;134263;-67
2022/05/16 06:27:59;;;;;;;;;;;;;;;;;;4927570;28;125112;-67
2022/05/16 06:30:25;;;;;;;;;;;;;;;;;;4926977;28;136410;-68
2022/05/16 06:32:51;;;;;;;;;;;;;;;;;;4926471;28;134869;-69
2022/05/16 06:35:18;;;;;;;;;;;;;;;;;;4925486;28;108177;-67
2022/05/16 06:37:44;;;;;;;;;;;;;;;;;;4928984;28;134188;-67
2022/05/16 06:40:11;;;;;;;;;;;;;;;;;;4924788;28;106711;-67
2022/05/16 06:42:37;;;;;;;;;;;;;;;;;;4916243;28;136248;-68
2022/05/16 06:45:03;;;;;;;;;;;;;;;;;;4924953;28;135671;-66
2022/05/16 06:47:30;;;;;;;;;;;;;;;;;;4924973;28;122009;-68
2022/05/16 06:49:56;;;;;;;;;;;;;;;;;;4928517;28;130023;-67
2022/05/16 06:52:24;;;;;;;;;;;;;;;;;;4923566;28;136946;-67
2022/05/16 06:54:50;;;;;;;;;;;;;;;;;;4918673;28;123399;-67
2022/05/16 06:57:16;;;;;;;;;;;;;;;;;;4924389;28;136323;-67
2022/05/16 06:59:42;;;;;;;;;;;;;;;;;;4922736;28;122618;-67
2022/05/16 07:02:09;;;;;;;;;;;;;;;;;;4926637;28;136555;-67
2022/05/16 07:04:37;;;;;;;;;;;;;;;;;;4926130;28;136685;-67
2022/05/16 07:07:04;;;;;;;;;;;;;;;;;;4928247;28;121137;-67
2022/05/16 07:09:30;;;;;;;;;;;;;;;;;;4924387;28;135438;-67
2022/05/16 07:11:56;;;;;;;;;;;;;;;;;;4924463;28;137337;-67
2022/05/16 07:14:23;;;;;;;;;;;;;;;;;;4915573;28;124552;-67
2022/05/16 07:16:50;;;;;;;;;;;;;;;;;;4911559;28;137264;-67
2022/05/16 07:19:16;;;;;;;;;;;;;;;;;;4923444;28;135562;-67
2022/05/16 07:21:43;;;;;;;;;;;;;;;;;;4923384;28;135263;-66
2022/05/16 07:24:09;;;;;;;;;;;;;;;;;;4925567;28;112900;-69
2022/05/16 07:29:20;;;;;;;;;;;;;;;;;;4927840;28;135444;-65
2022/05/16 07:31:47;;;;;;;;;;;;;;;;;;4925370;28;122278;-66
2022/05/16 07:34:13;;;;;;;;;;;;;;;;;;4928454;28;106541;-65
2022/05/16 07:36:39;;;;;;;;;;;;;;;;;;4926260;28;135324;-66
2022/05/16 07:39:06;;;;;;;;;;;;;;;;;;4929723;28;137057;-66
2022/05/16 07:41:32;;;;;;;;;;;;;;;;;;4926866;28;123509;-67
2022/05/16 07:43:58;;;;;;;;;;;;;;;;;;4926792;28;132955;-69
2022/05/16 07:46:25;;;;;;;;;;;;;;;;;;4929017;28;123350;-67
2022/05/16 07:48:51;;;;;;;;;;;;;;;;;;4927520;28;123301;-66
2022/05/16 07:51:17;;;;;;;;;;;;;;;;;;4922744;28;131704;-66
2022/05/16 07:53:44;;;;;;;;;;;;;;;;;;4925996;28;123280;-66
2022/05/16 07:56:11;;;;;;;;;;;;;;;;;;4932329;28;107636;-66
2022/05/16 07:58:37;;;;;;;;;;;;;;;;;;4925669;28;135662;-67
2022/05/16 08:01:03;;;;;;;;;;;;;;;;;;4926953;28;123115;-66
2022/05/16 08:03:29;;;;;;;;;;;;;;;;;;4928304;28;136351;-67
2022/05/16 08:05:56;;;;;;;;;;;;;;;;;;4925437;28;110674;-69
2022/05/16 08:11:09;;;;;;;;;;;;;;;;;;4921137;28;132034;-67
2022/05/16 08:13:36;;;;;;;;;;;;;;;;;;4925256;28;115910;-67
2022/05/16 08:16:02;;;;;;;;;;;;;;;;;;4929637;28;136482;-67
2022/05/16 08:18:28;;;;;;;;;;;;;;;;;;4927266;28;107701;-66
2022/05/16 08:20:55;;;;;;;;;;;;;;;;;;4929251;28;122534;-67
2022/05/16 08:23:21;;;;;;;;;;;;;;;;;;4933201;28;136672;-69
2022/05/16 08:25:47;;;;;;;;;;;;;;;;;;4928158;28;123286;-67
2022/05/16 08:28:13;;;;;;;;;;;;;;;;;;4921423;28;136663;-66
2022/05/16 08:30:40;;;;;;;;;;;;;;;;;;4929253;28;120610;-67
2022/05/16 08:33:06;;;;;;;;;;;;;;;;;;4928782;28;121900;-68
2022/05/16 08:35:32;;;;;;;;;;;;;;;;;;4922093;28;136091;-67
2022/05/16 08:40:44;;;;;;;;;;;;;;;;;;4919358;28;121968;-68
2022/05/16 08:43:12;;;;;;;;;;;;;;;;;;4925417;28;135491;-68
2022/05/16 08:45:38;;;;;;;;;;;;;;;;;;4932466;28;124453;-68
2022/05/16 08:48:05;;;;;;;;;;;;;;;;;;4924528;28;136838;-68
2022/05/16 08:50:31;;;;;;;;;;;;;;;;;;4922467;28;135903;-70
2022/05/16 08:52:57;;;;;;;;;;;;;;;;;;4917781;28;120178;-68
2022/05/16 08:55:23;;;;;;;;;;;;;;;;;;4924657;28;129857;-72
2022/05/16 08:57:50;;;;;;;;;;;;;;;;;;4925272;28;134107;-67
2022/05/16 09:00:16;;;;;;;;;;;;;;;;;;4925673;28;108072;-69
2022/05/16 09:02:43;;;;;;;;;;;;;;;;;;4926920;28;137696;-68
2022/05/16 09:05:09;;;;;;;;;;;;;;;;;;4928632;28;137228;-68
2022/05/16 09:07:35;;;;;;;;;;;;;;;;;;4924889;28;124115;-69
2022/05/16 09:10:01;;;;;;;;;;;;;;;;;;4929185;28;127483;-68
2022/05/16 09:12:28;;;;;;;;;;;;;;;;;;4918221;28;107221;-69
2022/05/16 09:14:54;;;;;;;;;;;;;;;;;;4922294;28;136885;-68
2022/05/16 09:17:20;;;;;;;;;;;;;;;;;;4926715;28;137096;-69
2022/05/16 09:19:47;;;;;;;;;;;;;;;;;;4922249;28;120740;-70
2022/05/16 09:22:13;;;;;;;;;;;;;;;;;;4926707;28;136337;-68
2022/05/16 09:24:39;;;;;;;;;;;;;;;;;;4925632;28;137034;-68
2022/05/16 09:27:05;;;;;;;;;;;;;;;;;;4927782;28;122093;-68
2022/05/16 09:29:32;;;;;;;;;;;;;;;;;;4930222;28;136314;-68
2022/05/16 09:31:58;;;;;;;;;;;;;;;;;;4922936;28;124423;-69
2022/05/16 09:34:26;;;;;;;;;;;;;;;;;;4927353;28;121438;-69
2022/05/16 09:36:53;;;;;;;;;;;;;;;;;;4924060;28;136762;-68
2022/05/16 09:39:20;;;;;;;;;;;;;;;;;;4923478;28;122524;-68
2022/05/16 09:41:46;;;;;;;;;;;;;;;;;;4929465;28;132580;-68
2022/05/16 09:44:12;;;;;;;;;;;;;;;;;;4926981;28;137513;-68
2022/05/16 09:46:39;;;;;;;;;;;;;;;;;;4922895;28;106825;-68
2022/05/16 09:49:05;;;;;;;;;;;;;;;;;;4927062;28;135718;-70
2022/05/16 09:51:33;;;;;;;;;;;;;;;;;;4932437;28;127196;-70
2022/05/16 09:54:00;;;;;;;;;;;;;;;;;;4928516;28;134012;-71
2022/05/16 09:56:41;;;;;;;;;;;;;;;;;;4917044;28;108307;-66
2022/05/16 09:59:07;;;;;;;;;;;;;;;;;;4926344;28;123313;-67
2022/05/16 10:01:34;;;;;;;;;;;;;;;;;;4928218;28;136416;-67
2022/05/16 10:04:00;;;;;;;;;;;;;;;;;;4924870;28;139329;-67
2022/05/16 10:06:26;;;;;;;;;;;;;;;;;;4924495;28;124661;-67
2022/05/16 10:08:53;;;;;;;;;;;;;;;;;;4926660;28;136338;-66
2022/05/16 10:11:19;;;;;;;;;;;;;;;;;;4925832;28;108030;-69
2022/05/16 10:13:45;;;;;;;;;;;;;;;;;;4924543;28;124564;-68
2022/05/16 10:16:12;;;;;;;;;;;;;;;;;;4926782;28;136542;-68
2022/05/16 10:18:38;;;;;;;;;;;;;;;;;;4938951;28;108111;-66
2022/05/16 10:21:06;;;;;;;;;;;;;;;;;;4921374;28;132310;-68
2022/05/16 10:23:32;;;;;;;;;;;;;;;;;;4920585;28;137304;-67
2022/05/16 10:25:58;;;;;;;;;;;;;;;;;;4917018;28;121456;-68
2022/05/16 10:28:24;;;;;;;;;;;;;;;;;;4921175;28;119288;-68
2022/05/16 10:33:36;;;;;;;;;;;;;;;;;;4922161;28;114642;-69
2022/05/16 10:36:02;;;;;;;;;;;;;;;;;;4922957;28;139233;-68
2022/05/16 10:38:29;;;;;;;;;;;;;;;;;;4923152;28;125534;-69
2022/05/16 10:40:57;;;;;;;;;;;;;;;;;;4923176;28;138627;-68
2022/05/16 10:43:23;;;;;;;;;;;;;;;;;;4920676;28;124534;-68
2022/05/16 10:45:49;;;;;;;;;;;;;;;;;;4925398;28;124323;-68
2022/05/16 10:48:15;;;;;;;;;;;;;;;;;;4927732;28;130603;-67
2022/05/16 10:50:42;;;;;;;;;;;;;;;;;;4920235;28;138062;-69
2022/05/16 10:53:10;;;;;;;;;;;;;;;;;;4924425;28;123142;-67
2022/05/16 10:55:36;;;;;;;;;;;;;;;;;;4930255;28;135139;-67
2022/05/16 10:58:02;;;;;;;;;;;;;;;;;;4922533;28;124236;-67
2022/05/16 11:00:28;;;;;;;;;;;;;;;;;;4924478;28;137516;-67
2022/05/16 11:02:55;;;;;;;;;;;;;;;;;;4926604;28;136713;-66
2022/05/16 11:05:21;;;;;;;;;;;;;;;;;;4925830;28;123261;-68
2022/05/16 11:07:49;;;;;;;;;;;;;;;;;;4930196;28;131467;-69
2022/05/16 11:10:15;;;;;;;;;;;;;;;;;;4922298;28;137849;-65
2022/05/16 11:12:43;;;;;;;;;;;;;;;;;;4920729;28;121940;-65
2022/05/16 11:15:12;;;;;;;;;;;;;;;;;;4931514;28;129908;-67
2022/05/16 11:17:38;;;;;;;;;;;;;;;;;;4921082;28;128699;-66
2022/05/16 11:20:05;;;;;;;;;;;;;;;;;;4923338;28;137013;-65
2022/05/16 11:22:31;;;;;;;;;;;;;;;;;;4928102;28;136609;-66
2022/05/16 11:24:57;;;;;;;;;;;;;;;;;;4931700;28;124430;-63
2022/05/16 11:27:24;;;;;;;;;;;;;;;;;;4918415;28;137162;-64
2022/05/16 11:29:51;;;;;;;;;;;;;;;;;;4928221;28;121144;-63
2022/05/16 11:32:17;;;;;;;;;;;;;;;;;;4922485;28;121027;-63
2022/05/16 11:34:43;;;;;;;;;;;;;;;;;;4924414;28;136585;-64
2022/05/16 11:37:10;;;;;;;;;;;;;;;;;;4927276;28;129851;-66
2022/05/16 11:39:37;;;;;;;;;;;;;;;;;;4920865;28;122370;-66
2022/05/16 11:42:03;;;;;;;;;;;;;;;;;;4926045;28;133558;-66
2022/05/16 11:44:30;;;;;;;;;;;;;;;;;;4928084;28;121536;-66
2022/05/16 11:46:56;;;;;;;;;;;;;;;;;;4930756;28;135382;-66
2022/05/16 11:49:42;;;;;;;;;;;;;;;;;;4928033;28;106571;-65
2022/05/16 11:52:29;;;;;;;;;;;;;;;;;;4931407;28;106602;-65
2022/05/16 11:54:55;;;;;;;;;;;;;;;;;;4920915;28;137267;-64
2022/05/16 12:02:51;;;;;;;;;;;;;;;;;;4927544;28;139385;-66
2022/05/16 12:05:17;;;;;;;;;;;;;;;;;;4929718;28;124060;-65
2022/05/16 12:07:44;;;;;;;;;;;;;;;;;;4927554;28;119489;-65
2022/05/16 12:10:10;;;;;;;;;;;;;;;;;;4927628;28;128702;-65
2022/05/16 12:12:37;;;;;;;;;;;;;;;;;;4926922;28;123267;-65
2022/05/16 12:15:03;;;;;;;;;;;;;;;;;;4923588;28;137056;-64
2022/05/16 12:17:30;;;;;;;;;;;;;;;;;;4917291;28;136719;-64
2022/05/16 12:19:56;;;;;;;;;;;;;;;;;;4916107;28;122018;-66
2022/05/16 12:22:24;;;;;;;;;;;;;;;;;;4927570;28;137089;-68
2022/05/16 12:24:51;;;;;;;;;;;;;;;;;;4931838;28;108091;-67
2022/05/16 12:27:17;;;;;;;;;;;;;;;;;;4921536;28;136162;-66
2022/05/16 12:29:43;;;;;;;;;;;;;;;;;;4922905;28;138462;-67
2022/05/16 12:32:10;;;;;;;;;;;;;;;;;;4925470;28;122001;-67
2022/05/16 12:34:37;;;;;;;;;;;;;;;;;;4920265;28;136352;-66
2022/05/16 12:37:03;;;;;;;;;;;;;;;;;;4914876;28;136226;-66
2022/05/16 12:39:29;;;;;;;;;;;;;;;;;;4943997;28;106756;-63
2022/05/16 12:41:55;;;;;;;;;;;;;;;;;;4926012;28;137892;-67
2022/05/16 12:44:22;;;;;;;;;;;;;;;;;;4928517;28;138527;-67
2022/05/16 12:46:49;;;;;;;;;;;;;;;;;;4924888;28;124514;-66
2022/05/16 12:49:15;;;;;;;;;;;;;;;;;;4918189;28;138549;-65
2022/05/16 12:51:41;;;;;;;;;;;;;;;;;;4924161;28;118117;-64
2022/05/16 12:54:08;;;;;;;;;;;;;;;;;;4916548;28;136635;-65
2022/05/16 12:56:34;;;;;;;;;;;;;;;;;;4913945;28;138112;-68
2022/05/16 12:59:00;;;;;;;;;;;;;;;;;;4926177;28;126406;-67
2022/05/16 13:01:27;;;;;;;;;;;;;;;;;;4928663;28;138887;-66
2022/05/16 13:03:53;;;;;;;;;;;;;;;;;;4920392;28;136515;-66
2022/05/16 13:06:19;;;;;;;;;;;;;;;;;;4933648;28;111842;-66
2022/05/16 13:08:50;;;;;;;;;;;;;;;;;;4927305;28;133300;-67
2022/05/16 13:11:17;;;;;;;;;;;;;;;;;;4926978;28;121215;-66
2022/05/16 13:13:43;;;;;;;;;;;;;;;;;;4928066;28;136568;-67
2022/05/16 13:16:10;;;;;;;;;;;;;;;;;;4922328;28;137790;-67
2022/05/16 13:18:36;;;;;;;;;;;;;;;;;;4927249;28;122972;-67
2022/05/16 13:21:04;;;;;;;;;;;;;;;;;;4926053;28;119372;-66
2022/05/16 13:23:30;;;;;;;;;;;;;;;;;;4920211;28;136073;-66
2022/05/16 13:31:33;;;;;;;;;;;;;;;;;;4927164;28;115903;-67
2022/05/16 13:34:00;;;;;;;;;;;;;;;;;;4923752;28;136227;-67
2022/05/16 13:36:26;;;;;;;;;;;;;;;;;;4924762;28;133239;-68
2022/05/16 13:38:52;;;;;;;;;;;;;;;;;;4926246;28;123572;-66
2022/05/16 13:41:19;;;;;;;;;;;;;;;;;;4922313;28;136265;-66
2022/05/16 13:43:45;;;;;;;;;;;;;;;;;;4912805;28;136330;-65
2022/05/16 13:46:11;;;;;;;;;;;;;;;;;;4928294;28;122894;-66
2022/05/16 13:48:38;;;;;;;;;;;;;;;;;;4923666;28;134953;-66
2022/05/16 13:51:04;;;;;;;;;;;;;;;;;;4928943;28;137843;-68
2022/05/16 13:53:30;;;;;;;;;;;;;;;;;;4926681;28;121261;-66
2022/05/16 13:55:56;;;;;;;;;;;;;;;;;;4920370;28;132255;-65
2022/05/16 13:58:23;;;;;;;;;;;;;;;;;;4919812;28;116038;-66
2022/05/16 14:00:49;;;;;;;;;;;;;;;;;;4919850;28;135662;-65
2022/05/16 14:05:52;;;;;;;;;;;;;;;;;;5040431;27;106671;-65
2022/05/16 14:08:20;;;;;;;;;;;;;;;;;;5039376;27;137816;-67
2022/05/16 14:10:46;;;;;;;;;;;;;;;;;;5040395;27;117611;-68
2022/05/16 14:13:13;;;;;;;;;;;;;;;;;;5040683;27;136814;-66
2022/05/16 14:15:39;;;;;;;;;;;;;;;;;;5037889;27;126293;-66
2022/05/16 14:18:05;;;;;;;;;;;;;;;;;;5038990;27;115853;-66
2022/05/16 14:20:31;;;;;;;;;;;;;;;;;;5048071;27;125390;-65
2022/05/16 14:22:58;;;;;;;;;;;;;;;;;;5051834;27;107538;-66
2022/05/16 14:25:24;;;;;;;;;;;;;;;;;;5046251;27;116305;-66
2022/05/16 14:27:50;;;;;;;;;;;;;;;;;;5030674;27;137755;-65
2022/05/16 14:30:17;;;;;;;;;;;;;;;;;;5028775;27;116064;-65
2022/05/16 14:32:46;;;;;;;;;;;;;;;;;;5043549;27;137107;-64
2022/05/16 14:35:12;;;;;;;;;;;;;;;;;;5039517;27;137279;-64
2022/05/16 14:37:38;;;;;;;;;;;;;;;;;;5042974;27;118335;-65
2022/05/16 14:40:05;;;;;;;;;;;;;;;;;;5049877;27;136675;-65
2022/05/16 14:42:32;;;;;;;;;;;;;;;;;;5039105;27;106867;-66
2022/05/16 14:44:58;;;;;;;;;;;;;;;;;;5047972;27;106662;-65
2022/05/16 14:47:25;;;;;;;;;;;;;;;;;;5038330;27;137616;-66
2022/05/16 14:49:51;;;;;;;;;;;;;;;;;;5044706;27;117145;-66
2022/05/16 14:52:22;;;;;;;;;;;;;;;;;;5031083;27;122331;-67
2022/05/16 14:54:48;;;;;;;;;;;;;;;;;;5048501;27;137926;-67
2022/05/16 14:57:14;;;;;;;;;;;;;;;;;;5050140;27;117391;-66
2022/05/16 14:59:41;;;;;;;;;;;;;;;;;;5049845;27;129670;-67
2022/05/16 15:05:12;;;;;;;;;;;;;;;;;;5023964;27;112473;-66
2022/05/16 15:07:38;;;;;;;;;;;;;;;;;;5024014;27;137374;-67
2022/05/16 15:10:06;;;;;;;;;;;;;;;;;;5036903;27;137498;-67
2022/05/16 15:12:37;;;;;;;;;;;;;;;;;;5044013;27;137437;-67
2022/05/16 15:15:03;;;;;;;;;;;;;;;;;;5047931;27;136364;-66
2022/05/16 15:17:29;;;;;;;;;;;;;;;;;;5037639;27;117448;-67
2022/05/16 15:19:56;;;;;;;;;;;;;;;;;;5042406;27;136748;-67
2022/05/16 15:22:22;;;;;;;;;;;;;;;;;;5038808;27;107402;-67
2022/05/16 15:24:48;;;;;;;;;;;;;;;;;;5040916;27;112710;-66
2022/05/16 15:27:15;;;;;;;;;;;;;;;;;;5038389;27;109428;-66
2022/05/16 15:29:42;;;;;;;;;;;;;;;;;;5039876;27;135987;-67
2022/05/16 15:32:08;;;;;;;;;;;;;;;;;;5027709;27;106726;-67
2022/05/16 15:34:34;;;;;;;;;;;;;;;;;;5029950;27;138973;-67
2022/05/16 15:37:01;;;;;;;;;;;;;;;;;;5026585;27;115944;-67
2022/05/16 15:39:27;;;;;;;;;;;;;;;;;;5029397;27;136071;-65
2022/05/16 15:41:53;;;;;;;;;;;;;;;;;;5033780;27;136528;-64
2022/05/16 15:44:22;;;;;;;;;;;;;;;;;;5028704;27;115638;-65
2022/05/16 15:46:49;;;;;;;;;;;;;;;;;;5028365;27;136352;-66
2022/05/16 15:49:18;;;;;;;;;;;;;;;;;;5024996;27;135931;-64
2022/05/16 15:51:44;;;;;;;;;;;;;;;;;;5017349;27;117414;-68
2022/05/16 15:54:10;;;;;;;;;;;;;;;;;;5043060;27;115860;-66
2022/05/16 15:56:37;;;;;;;;;;;;;;;;;;5024533;27;115899;-66
2022/05/16 15:59:03;;;;;;;;;;;;;;;;;;5030178;27;136458;-64
2022/05/16 16:01:29;;;;;;;;;;;;;;;;;;5036912;27;107801;-66
2022/05/16 16:09:26;;;;;;;;;;;;;;;;;;5026184;27;137024;-66
2022/05/16 16:11:52;;;;;;;;;;;;;;;;;;5027871;27;110649;-66
2022/05/16 16:14:21;;;;;;;;;;;;;;;;;;5038100;27;125011;-67
2022/05/16 16:16:48;;;;;;;;;;;;;;;;;;5035510;27;106310;-67
2022/05/16 16:19:14;;;;;;;;;;;;;;;;;;5028008;27;136492;-66
2022/05/16 16:21:41;;;;;;;;;;;;;;;;;;5028070;27;136534;-66
2022/05/16 16:24:08;;;;;;;;;;;;;;;;;;5034157;27;106226;-68
2022/05/16 16:26:34;;;;;;;;;;;;;;;;;;5040221;27;130777;-68
2022/05/16 16:29:00;;;;;;;;;;;;;;;;;;5020792;27;137027;-70
2022/05/16 16:31:27;;;;;;;;;;;;;;;;;;5011723;27;114837;-67
2022/05/16 16:33:54;;;;;;;;;;;;;;;;;;5034373;27;134516;-66
2022/05/16 16:36:21;;;;;;;;;;;;;;;;;;5037094;27;137648;-69
2022/05/16 16:38:47;;;;;;;;;;;;;;;;;;5027942;27;135555;-66
2022/05/16 16:41:13;;;;;;;;;;;;;;;;;;5025348;27;123049;-66
2022/05/16 16:43:40;;;;;;;;;;;;;;;;;;5038935;27;105871;-67
2022/05/16 16:46:06;;;;;;;;;;;;;;;;;;5042310;27;136454;-67
2022/05/16 16:48:32;;;;;;;;;;;;;;;;;;5030273;27;136443;-66
2022/05/16 16:51:00;;;;;;;;;;;;;;;;;;5029762;27;106333;-66
2022/05/16 16:59:16;;;;;;;;;;;;;;;;;;5009589;27;117442;-66
2022/05/16 17:01:43;;;;;;;;;;;;;;;;;;5015443;27;135741;-69
2022/05/16 17:04:10;;;;;;;;;;;;;;;;;;5021776;27;116252;-66
2022/05/16 17:06:36;;;;;;;;;;;;;;;;;;5033155;27;126444;-67
2022/05/16 17:09:02;;;;;;;;;;;;;;;;;;5030481;27;137669;-67
2022/05/16 17:11:28;;;;;;;;;;;;;;;;;;5023447;27;116944;-67
2022/05/16 17:13:55;;;;;;;;;;;;;;;;;;5024115;27;136536;-66
2022/05/16 17:16:21;;;;;;;;;;;;;;;;;;5025378;27;137650;-69